sensor_id;sensor_type;location;lat;lon;timestamp;temperature;humidity
16032;DHT22;8120;48.308;8.914;2023-12-22T00:00:04;5.80;93.80
16032;DHT22;8120;48.308;8.914;2023-12-22T00:02:32;5.60;96.50
16032;DHT22;8120;48.308;8.914;2023-12-22T00:05:00;5.60;96.90
16032;DHT22;8120;48.308;8.914;2023-12-22T00:07:28;5.50;97.40
16032;DHT22;8120;48.308;8.914;2023-12-22T00:09:56;5.60;94.70
16032;DHT22;8120;48.308;8.914;2023-12-22T00:12:24;5.70;91.10
16032;DHT22;8120;48.308;8.914;2023-12-22T00:14:52;5.80;88.00
16032;DHT22;8120;48.308;8.914;2023-12-22T00:17:21;5.60;91.20
16032;DHT22;8120;48.308;8.914;2023-12-22T00:19:49;5.60;90.00
16032;DHT22;8120;48.308;8.914;2023-12-22T00:22:17;5.50;89.80
16032;DHT22;8120;48.308;8.914;2023-12-22T00:24:45;5.40;89.50
16032;DHT22;8120;48.308;8.914;2023-12-22T00:27:13;5.30;88.90
16032;DHT22;8120;48.308;8.914;2023-12-22T00:29:41;5.20;90.30
16032;DHT22;8120;48.308;8.914;2023-12-22T00:32:09;5.20;89.80
16032;DHT22;8120;48.308;8.914;2023-12-22T00:34:38;5.20;89.00
16032;DHT22;8120;48.308;8.914;2023-12-22T00:37:06;5.10;89.20
16032;DHT22;8120;48.308;8.914;2023-12-22T00:39:34;5.20;88.00
16032;DHT22;8120;48.308;8.914;2023-12-22T00:42:02;5.20;88.50
16032;DHT22;8120;48.308;8.914;2023-12-22T00:44:31;5.10;89.30
16032;DHT22;8120;48.308;8.914;2023-12-22T00:46:58;5.20;88.10
16032;DHT22;8120;48.308;8.914;2023-12-22T00:49:26;5.30;87.20
16032;DHT22;8120;48.308;8.914;2023-12-22T00:51:56;5.30;88.00
16032;DHT22;8120;48.308;8.914;2023-12-22T00:54:24;5.20;88.60
16032;DHT22;8120;48.308;8.914;2023-12-22T00:56:52;5.20;88.80
16032;DHT22;8120;48.308;8.914;2023-12-22T00:59:20;5.20;88.80
16032;DHT22;8120;48.308;8.914;2023-12-22T01:01:48;5.10;90.30
16032;DHT22;8120;48.308;8.914;2023-12-22T01:04:19;5.00;91.40
16032;DHT22;8120;48.308;8.914;2023-12-22T01:06:47;5.00;90.90
16032;DHT22;8120;48.308;8.914;2023-12-22T01:09:16;5.00;91.20
16032;DHT22;8120;48.308;8.914;2023-12-22T01:11:46;5.00;91.40
16032;DHT22;8120;48.308;8.914;2023-12-22T01:14:14;5.00;91.60
16032;DHT22;8120;48.308;8.914;2023-12-22T01:16:42;4.90;92.70
16032;DHT22;8120;48.308;8.914;2023-12-22T01:19:10;4.90;93.60
16032;DHT22;8120;48.308;8.914;2023-12-22T01:21:38;4.80;94.50
16032;DHT22;8120;48.308;8.914;2023-12-22T01:24:06;4.70;95.20
16032;DHT22;8120;48.308;8.914;2023-12-22T01:26:35;4.70;95.70
16032;DHT22;8120;48.308;8.914;2023-12-22T01:29:03;4.70;96.20
16032;DHT22;8120;48.308;8.914;2023-12-22T01:31:31;4.80;96.20
16032;DHT22;8120;48.308;8.914;2023-12-22T01:33:59;4.80;94.90
16032;DHT22;8120;48.308;8.914;2023-12-22T01:36:27;4.80;95.20
16032;DHT22;8120;48.308;8.914;2023-12-22T01:38:55;4.80;95.70
16032;DHT22;8120;48.308;8.914;2023-12-22T01:41:23;4.70;96.10
16032;DHT22;8120;48.308;8.914;2023-12-22T01:43:52;4.80;96.60
16032;DHT22;8120;48.308;8.914;2023-12-22T01:46:20;4.80;96.20
16032;DHT22;8120;48.308;8.914;2023-12-22T01:48:48;4.80;95.90
16032;DHT22;8120;48.308;8.914;2023-12-22T01:51:16;4.80;94.10
16032;DHT22;8120;48.308;8.914;2023-12-22T01:53:45;4.70;93.80
16032;DHT22;8120;48.308;8.914;2023-12-22T01:56:14;4.60;92.70
16032;DHT22;8120;48.308;8.914;2023-12-22T01:58:42;4.60;93.20
16032;DHT22;8120;48.308;8.914;2023-12-22T02:01:11;4.60;93.30
16032;DHT22;8120;48.308;8.914;2023-12-22T02:03:40;4.60;92.80
16032;DHT22;8120;48.308;8.914;2023-12-22T02:06:08;4.70;92.70
16032;DHT22;8120;48.308;8.914;2023-12-22T02:08:36;4.70;93.30
16032;DHT22;8120;48.308;8.914;2023-12-22T02:11:04;4.80;93.00
16032;DHT22;8120;48.308;8.914;2023-12-22T02:13:32;4.90;92.00
16032;DHT22;8120;48.308;8.914;2023-12-22T02:16:05;5.10;89.90
16032;DHT22;8120;48.308;8.914;2023-12-22T02:18:43;5.10;88.80
16032;DHT22;8120;48.308;8.914;2023-12-22T02:21:13;5.00;89.30
16032;DHT22;8120;48.308;8.914;2023-12-22T02:23:43;5.00;89.00
16032;DHT22;8120;48.308;8.914;2023-12-22T02:26:17;4.90;88.10
16032;DHT22;8120;48.308;8.914;2023-12-22T02:28:47;4.90;88.30
16032;DHT22;8120;48.308;8.914;2023-12-22T02:31:18;4.90;87.40
16032;DHT22;8120;48.308;8.914;2023-12-22T02:33:49;4.90;87.30
16032;DHT22;8120;48.308;8.914;2023-12-22T02:36:22;4.90;87.00
16032;DHT22;8120;48.308;8.914;2023-12-22T02:38:53;4.80;87.00
16032;DHT22;8120;48.308;8.914;2023-12-22T02:41:22;4.70;86.30
16032;DHT22;8120;48.308;8.914;2023-12-22T02:43:51;4.60;86.30
16032;DHT22;8120;48.308;8.914;2023-12-22T02:46:19;4.50;86.10
16032;DHT22;8120;48.308;8.914;2023-12-22T02:48:47;4.50;87.40
16032;DHT22;8120;48.308;8.914;2023-12-22T02:51:15;4.50;86.70
16032;DHT22;8120;48.308;8.914;2023-12-22T02:53:43;4.50;86.80
16032;DHT22;8120;48.308;8.914;2023-12-22T02:56:12;4.40;88.00
16032;DHT22;8120;48.308;8.914;2023-12-22T02:58:40;4.30;89.20
16032;DHT22;8120;48.308;8.914;2023-12-22T03:01:08;4.30;89.00
16032;DHT22;8120;48.308;8.914;2023-12-22T03:03:36;4.40;89.20
16032;DHT22;8120;48.308;8.914;2023-12-22T03:06:04;4.30;89.60
16032;DHT22;8120;48.308;8.914;2023-12-22T03:08:32;4.40;88.40
16032;DHT22;8120;48.308;8.914;2023-12-22T03:11:00;4.40;88.80
16032;DHT22;8120;48.308;8.914;2023-12-22T03:13:30;4.30;89.70
16032;DHT22;8120;48.308;8.914;2023-12-22T03:15:58;4.30;89.30
16032;DHT22;8120;48.308;8.914;2023-12-22T03:18:26;4.40;89.10
16032;DHT22;8120;48.308;8.914;2023-12-22T03:20:54;4.40;90.30
16032;DHT22;8120;48.308;8.914;2023-12-22T03:23:21;4.40;91.40
16032;DHT22;8120;48.308;8.914;2023-12-22T03:25:49;4.30;92.70
16032;DHT22;8120;48.308;8.914;2023-12-22T03:28:17;4.30;92.80
16032;DHT22;8120;48.308;8.914;2023-12-22T03:30:47;4.30;91.20
16032;DHT22;8120;48.308;8.914;2023-12-22T03:33:15;4.20;91.30
16032;DHT22;8120;48.308;8.914;2023-12-22T03:35:43;4.20;92.10
16032;DHT22;8120;48.308;8.914;2023-12-22T03:38:11;4.20;91.80
16032;DHT22;8120;48.308;8.914;2023-12-22T03:40:39;4.20;92.80
16032;DHT22;8120;48.308;8.914;2023-12-22T03:43:07;4.20;93.10
16032;DHT22;8120;48.308;8.914;2023-12-22T03:45:35;4.20;93.40
16032;DHT22;8120;48.308;8.914;2023-12-22T03:48:05;4.20;93.40
16032;DHT22;8120;48.308;8.914;2023-12-22T03:50:33;4.20;93.60
16032;DHT22;8120;48.308;8.914;2023-12-22T03:53:01;4.40;92.60
16032;DHT22;8120;48.308;8.914;2023-12-22T03:55:29;4.40;92.50
16032;DHT22;8120;48.308;8.914;2023-12-22T03:57:57;4.50;91.70
16032;DHT22;8120;48.308;8.914;2023-12-22T04:00:25;4.50;91.20
16032;DHT22;8120;48.308;8.914;2023-12-22T04:02:53;4.60;90.40
16032;DHT22;8120;48.308;8.914;2023-12-22T04:05:25;4.60;89.70
16032;DHT22;8120;48.308;8.914;2023-12-22T04:07:53;4.60;90.00
16032;DHT22;8120;48.308;8.914;2023-12-22T04:10:21;4.60;90.50
16032;DHT22;8120;48.308;8.914;2023-12-22T04:12:49;4.60;89.50
16032;DHT22;8120;48.308;8.914;2023-12-22T04:15:17;4.70;88.70
16032;DHT22;8120;48.308;8.914;2023-12-22T04:17:45;4.70;89.80
16032;DHT22;8120;48.308;8.914;2023-12-22T04:20:13;4.60;90.80
16032;DHT22;8120;48.308;8.914;2023-12-22T04:22:43;4.50;91.80
16032;DHT22;8120;48.308;8.914;2023-12-22T04:25:11;4.50;92.20
16032;DHT22;8120;48.308;8.914;2023-12-22T04:27:39;4.50;92.80
16032;DHT22;8120;48.308;8.914;2023-12-22T04:30:08;4.50;92.00
16032;DHT22;8120;48.308;8.914;2023-12-22T04:32:36;4.50;92.10
16032;DHT22;8120;48.308;8.914;2023-12-22T04:35:04;4.50;92.20
16032;DHT22;8120;48.308;8.914;2023-12-22T04:37:32;4.50;92.20
16032;DHT22;8120;48.308;8.914;2023-12-22T04:40:02;4.50;92.40
16032;DHT22;8120;48.308;8.914;2023-12-22T04:42:30;4.40;92.90
16032;DHT22;8120;48.308;8.914;2023-12-22T04:44:58;4.40;93.40
16032;DHT22;8120;48.308;8.914;2023-12-22T04:47:26;4.40;93.90
16032;DHT22;8120;48.308;8.914;2023-12-22T04:49:53;4.40;94.30
16032;DHT22;8120;48.308;8.914;2023-12-22T04:52:21;4.30;94.30
16032;DHT22;8120;48.308;8.914;2023-12-22T04:54:49;4.30;95.00
16032;DHT22;8120;48.308;8.914;2023-12-22T04:57:19;4.30;95.30
16032;DHT22;8120;48.308;8.914;2023-12-22T04:59:48;4.20;95.90
16032;DHT22;8120;48.308;8.914;2023-12-22T05:02:16;4.20;96.10
16032;DHT22;8120;48.308;8.914;2023-12-22T05:08:31;4.30;94.00
16032;DHT22;8120;48.308;8.914;2023-12-22T05:10:59;4.30;94.00
16032;DHT22;8120;48.308;8.914;2023-12-22T05:13:28;4.40;92.40
16032;DHT22;8120;48.308;8.914;2023-12-22T05:15:56;4.40;92.50
16032;DHT22;8120;48.308;8.914;2023-12-22T05:18:24;4.50;90.90
16032;DHT22;8120;48.308;8.914;2023-12-22T05:20:52;4.60;89.50
16032;DHT22;8120;48.308;8.914;2023-12-22T05:23:20;4.60;89.50
16032;DHT22;8120;48.308;8.914;2023-12-22T05:25:48;4.50;89.40
16032;DHT22;8120;48.308;8.914;2023-12-22T05:28:16;4.60;88.70
16032;DHT22;8120;48.308;8.914;2023-12-22T05:30:46;4.60;88.30
16032;DHT22;8120;48.308;8.914;2023-12-22T05:33:14;4.60;86.90
16032;DHT22;8120;48.308;8.914;2023-12-22T05:35:42;4.60;87.20
16032;DHT22;8120;48.308;8.914;2023-12-22T05:38:10;4.60;87.10
16032;DHT22;8120;48.308;8.914;2023-12-22T05:40:38;4.60;86.60
16032;DHT22;8120;48.308;8.914;2023-12-22T05:43:06;4.60;86.20
16032;DHT22;8120;48.308;8.914;2023-12-22T05:45:33;4.60;86.30
16032;DHT22;8120;48.308;8.914;2023-12-22T05:48:04;4.50;87.10
16032;DHT22;8120;48.308;8.914;2023-12-22T05:50:32;4.50;88.00
16032;DHT22;8120;48.308;8.914;2023-12-22T05:53:00;4.50;87.70
16032;DHT22;8120;48.308;8.914;2023-12-22T05:55:28;4.50;87.90
16032;DHT22;8120;48.308;8.914;2023-12-22T05:57:56;4.50;88.90
16032;DHT22;8120;48.308;8.914;2023-12-22T06:00:24;4.40;90.10
16032;DHT22;8120;48.308;8.914;2023-12-22T06:02:53;4.30;90.60
16032;DHT22;8120;48.308;8.914;2023-12-22T06:05:22;4.40;90.40
16032;DHT22;8120;48.308;8.914;2023-12-22T06:07:50;4.50;89.50
16032;DHT22;8120;48.308;8.914;2023-12-22T06:10:18;4.50;90.60
16032;DHT22;8120;48.308;8.914;2023-12-22T06:12:46;4.40;91.20
16032;DHT22;8120;48.308;8.914;2023-12-22T06:15:14;4.40;91.70
16032;DHT22;8120;48.308;8.914;2023-12-22T06:17:42;4.30;91.80
16032;DHT22;8120;48.308;8.914;2023-12-22T06:20:10;4.30;92.00
16032;DHT22;8120;48.308;8.914;2023-12-22T06:22:40;4.40;91.00
16032;DHT22;8120;48.308;8.914;2023-12-22T06:25:08;4.40;91.00
16032;DHT22;8120;48.308;8.914;2023-12-22T06:27:36;4.30;91.20
16032;DHT22;8120;48.308;8.914;2023-12-22T06:30:06;4.30;91.30
16032;DHT22;8120;48.308;8.914;2023-12-22T06:32:34;4.30;91.40
16032;DHT22;8120;48.308;8.914;2023-12-22T06:35:02;4.20;92.10
16032;DHT22;8120;48.308;8.914;2023-12-22T06:37:30;4.30;92.30
16032;DHT22;8120;48.308;8.914;2023-12-22T06:39:59;4.20;92.10
16032;DHT22;8120;48.308;8.914;2023-12-22T06:42:27;4.30;91.60
16032;DHT22;8120;48.308;8.914;2023-12-22T06:44:55;4.40;90.40
16032;DHT22;8120;48.308;8.914;2023-12-22T06:47:23;4.30;90.70
16032;DHT22;8120;48.308;8.914;2023-12-22T06:49:54;4.40;90.30
16032;DHT22;8120;48.308;8.914;2023-12-22T06:52:22;4.30;90.40
16032;DHT22;8120;48.308;8.914;2023-12-22T06:54:50;4.30;90.40
16032;DHT22;8120;48.308;8.914;2023-12-22T06:57:19;4.40;89.40
16032;DHT22;8120;48.308;8.914;2023-12-22T06:59:49;4.50;88.30
16032;DHT22;8120;48.308;8.914;2023-12-22T07:02:18;4.40;89.00
16032;DHT22;8120;48.308;8.914;2023-12-22T07:08:04;4.60;87.10
16032;DHT22;8120;48.308;8.914;2023-12-22T07:10:32;4.70;86.80
16032;DHT22;8120;48.308;8.914;2023-12-22T07:13:02;4.70;87.30
16032;DHT22;8120;48.308;8.914;2023-12-22T07:15:31;4.60;88.30
16032;DHT22;8120;48.308;8.914;2023-12-22T07:17:59;4.60;88.30
16032;DHT22;8120;48.308;8.914;2023-12-22T07:20:29;4.60;88.70
16032;DHT22;8120;48.308;8.914;2023-12-22T07:22:56;4.60;88.90
16032;DHT22;8120;48.308;8.914;2023-12-22T07:25:24;4.60;88.70
16032;DHT22;8120;48.308;8.914;2023-12-22T07:27:53;4.60;88.90
16032;DHT22;8120;48.308;8.914;2023-12-22T07:30:22;4.60;89.50
16032;DHT22;8120;48.308;8.914;2023-12-22T07:32:50;4.50;90.50
16032;DHT22;8120;48.308;8.914;2023-12-22T07:35:19;4.50;91.60
16032;DHT22;8120;48.308;8.914;2023-12-22T07:37:47;4.40;92.20
16032;DHT22;8120;48.308;8.914;2023-12-22T07:40:16;4.40;92.30
16032;DHT22;8120;48.308;8.914;2023-12-22T07:42:44;4.30;92.80
16032;DHT22;8120;48.308;8.914;2023-12-22T07:45:12;4.30;92.90
16032;DHT22;8120;48.308;8.914;2023-12-22T07:47:41;4.30;93.40
16032;DHT22;8120;48.308;8.914;2023-12-22T07:50:09;4.30;93.40
16032;DHT22;8120;48.308;8.914;2023-12-22T07:52:37;4.30;93.80
16032;DHT22;8120;48.308;8.914;2023-12-22T07:55:08;4.30;93.10
16032;DHT22;8120;48.308;8.914;2023-12-22T07:57:37;4.30;92.80
16032;DHT22;8120;48.308;8.914;2023-12-22T08:00:06;4.40;92.00
16032;DHT22;8120;48.308;8.914;2023-12-22T08:02:35;4.50;91.20
16032;DHT22;8120;48.308;8.914;2023-12-22T08:05:05;4.70;90.60
16032;DHT22;8120;48.308;8.914;2023-12-22T08:07:33;4.80;89.70
16032;DHT22;8120;48.308;8.914;2023-12-22T08:10:01;4.70;90.30
16032;DHT22;8120;48.308;8.914;2023-12-22T08:12:29;4.50;91.20
16032;DHT22;8120;48.308;8.914;2023-12-22T08:14:58;4.50;91.40
16032;DHT22;8120;48.308;8.914;2023-12-22T08:17:26;4.50;91.40
16032;DHT22;8120;48.308;8.914;2023-12-22T08:19:54;4.40;92.10
16032;DHT22;8120;48.308;8.914;2023-12-22T08:22:24;4.50;91.60
16032;DHT22;8120;48.308;8.914;2023-12-22T08:24:58;4.50;92.00
16032;DHT22;8120;48.308;8.914;2023-12-22T08:27:26;4.50;91.90
16032;DHT22;8120;48.308;8.914;2023-12-22T08:29:54;4.40;92.50
16032;DHT22;8120;48.308;8.914;2023-12-22T08:32:21;4.40;92.30
16032;DHT22;8120;48.308;8.914;2023-12-22T08:34:49;4.40;92.80
16032;DHT22;8120;48.308;8.914;2023-12-22T08:37:17;4.40;92.50
16032;DHT22;8120;48.308;8.914;2023-12-22T08:39:47;4.40;92.40
16032;DHT22;8120;48.308;8.914;2023-12-22T08:42:15;4.40;92.50
16032;DHT22;8120;48.308;8.914;2023-12-22T08:44:43;4.40;92.70
16032;DHT22;8120;48.308;8.914;2023-12-22T08:47:11;4.50;91.10
16032;DHT22;8120;48.308;8.914;2023-12-22T08:49:39;4.60;90.70
16032;DHT22;8120;48.308;8.914;2023-12-22T08:52:07;4.60;90.90
16032;DHT22;8120;48.308;8.914;2023-12-22T08:54:34;4.50;91.50
16032;DHT22;8120;48.308;8.914;2023-12-22T08:57:04;4.50;92.50
16032;DHT22;8120;48.308;8.914;2023-12-22T08:59:32;4.50;92.30
16032;DHT22;8120;48.308;8.914;2023-12-22T09:02:00;4.50;92.40
16032;DHT22;8120;48.308;8.914;2023-12-22T09:04:28;4.50;92.10
16032;DHT22;8120;48.308;8.914;2023-12-22T09:06:55;4.40;92.60
16032;DHT22;8120;48.308;8.914;2023-12-22T09:09:23;4.40;93.20
16032;DHT22;8120;48.308;8.914;2023-12-22T09:11:51;4.40;93.70
16032;DHT22;8120;48.308;8.914;2023-12-22T09:14:21;4.50;93.30
16032;DHT22;8120;48.308;8.914;2023-12-22T09:16:49;4.40;94.00
16032;DHT22;8120;48.308;8.914;2023-12-22T09:19:17;4.50;94.10
16032;DHT22;8120;48.308;8.914;2023-12-22T09:21:45;4.50;93.40
16032;DHT22;8120;48.308;8.914;2023-12-22T09:24:12;4.50;93.40
16032;DHT22;8120;48.308;8.914;2023-12-22T09:26:41;4.60;93.00
16032;DHT22;8120;48.308;8.914;2023-12-22T09:29:09;4.50;93.60
16032;DHT22;8120;48.308;8.914;2023-12-22T09:31:38;4.50;93.80
16032;DHT22;8120;48.308;8.914;2023-12-22T09:34:08;4.50;94.00
16032;DHT22;8120;48.308;8.914;2023-12-22T09:36:36;4.50;94.40
16032;DHT22;8120;48.308;8.914;2023-12-22T09:39:04;4.50;93.40
16032;DHT22;8120;48.308;8.914;2023-12-22T09:41:31;4.50;93.60
16032;DHT22;8120;48.308;8.914;2023-12-22T09:44:00;4.50;93.70
16032;DHT22;8120;48.308;8.914;2023-12-22T09:46:30;4.50;94.10
16032;DHT22;8120;48.308;8.914;2023-12-22T09:49:00;4.50;93.30
16032;DHT22;8120;48.308;8.914;2023-12-22T09:51:29;4.50;93.50
16032;DHT22;8120;48.308;8.914;2023-12-22T09:53:58;4.50;94.20
16032;DHT22;8120;48.308;8.914;2023-12-22T09:56:31;4.50;94.30
16032;DHT22;8120;48.308;8.914;2023-12-22T09:59:00;4.50;94.30
16032;DHT22;8120;48.308;8.914;2023-12-22T10:01:29;4.60;93.20
16032;DHT22;8120;48.308;8.914;2023-12-22T10:04:00;4.60;93.10
16032;DHT22;8120;48.308;8.914;2023-12-22T10:06:28;4.60;93.40
16032;DHT22;8120;48.308;8.914;2023-12-22T10:08:56;4.60;93.00
16032;DHT22;8120;48.308;8.914;2023-12-22T10:11:25;4.60;92.80
16032;DHT22;8120;48.308;8.914;2023-12-22T10:13:55;4.60;93.10
16032;DHT22;8120;48.308;8.914;2023-12-22T10:16:23;4.70;92.20
16032;DHT22;8120;48.308;8.914;2023-12-22T10:18:51;4.70;92.30
16032;DHT22;8120;48.308;8.914;2023-12-22T10:21:21;4.70;92.70
16032;DHT22;8120;48.308;8.914;2023-12-22T10:23:49;4.70;92.40
16032;DHT22;8120;48.308;8.914;2023-12-22T10:26:17;4.80;91.60
16032;DHT22;8120;48.308;8.914;2023-12-22T10:28:47;4.80;91.50
16032;DHT22;8120;48.308;8.914;2023-12-22T10:31:15;4.80;91.40
16032;DHT22;8120;48.308;8.914;2023-12-22T10:33:44;4.80;92.00
16032;DHT22;8120;48.308;8.914;2023-12-22T10:36:12;4.90;91.70
16032;DHT22;8120;48.308;8.914;2023-12-22T10:38:42;4.90;91.60
16032;DHT22;8120;48.308;8.914;2023-12-22T10:41:11;4.90;91.20
16032;DHT22;8120;48.308;8.914;2023-12-22T10:43:40;4.90;91.30
16032;DHT22;8120;48.308;8.914;2023-12-22T10:46:08;4.90;91.70
16032;DHT22;8120;48.308;8.914;2023-12-22T10:48:39;4.90;91.20
16032;DHT22;8120;48.308;8.914;2023-12-22T10:51:09;4.90;91.50
16032;DHT22;8120;48.308;8.914;2023-12-22T10:53:42;4.90;91.10
16032;DHT22;8120;48.308;8.914;2023-12-22T10:56:10;4.90;92.00
16032;DHT22;8120;48.308;8.914;2023-12-22T10:58:39;5.00;91.10
16032;DHT22;8120;48.308;8.914;2023-12-22T11:01:07;4.90;92.00
16032;DHT22;8120;48.308;8.914;2023-12-22T11:03:38;4.80;92.20
16032;DHT22;8120;48.308;8.914;2023-12-22T11:06:10;4.80;92.40
16032;DHT22;8120;48.308;8.914;2023-12-22T11:08:41;4.80;92.50
16032;DHT22;8120;48.308;8.914;2023-12-22T11:11:15;4.90;92.40
16032;DHT22;8120;48.308;8.914;2023-12-22T11:13:44;4.90;92.20
16032;DHT22;8120;48.308;8.914;2023-12-22T11:16:14;4.90;91.90
16032;DHT22;8120;48.308;8.914;2023-12-22T11:18:43;4.90;91.60
16032;DHT22;8120;48.308;8.914;2023-12-22T11:21:12;5.00;91.70
16032;DHT22;8120;48.308;8.914;2023-12-22T11:23:42;5.00;91.80
16032;DHT22;8120;48.308;8.914;2023-12-22T11:26:13;5.00;91.40
16032;DHT22;8120;48.308;8.914;2023-12-22T11:28:41;4.90;91.90
16032;DHT22;8120;48.308;8.914;2023-12-22T11:31:10;5.00;91.70
16032;DHT22;8120;48.308;8.914;2023-12-22T11:33:42;5.00;92.10
16032;DHT22;8120;48.308;8.914;2023-12-22T11:36:29;5.00;91.60
16032;DHT22;8120;48.308;8.914;2023-12-22T11:39:00;5.00;92.00
16032;DHT22;8120;48.308;8.914;2023-12-22T11:41:30;5.00;92.20
16032;DHT22;8120;48.308;8.914;2023-12-22T11:44:00;5.00;91.90
16032;DHT22;8120;48.308;8.914;2023-12-22T11:46:30;5.00;92.40
16032;DHT22;8120;48.308;8.914;2023-12-22T11:49:00;5.00;92.70
16032;DHT22;8120;48.308;8.914;2023-12-22T11:51:31;5.00;92.30
16032;DHT22;8120;48.308;8.914;2023-12-22T11:54:02;5.10;93.10
16032;DHT22;8120;48.308;8.914;2023-12-22T11:56:30;5.10;92.70
16032;DHT22;8120;48.308;8.914;2023-12-22T11:58:58;5.10;93.30
16032;DHT22;8120;48.308;8.914;2023-12-22T12:01:28;5.00;93.80
16032;DHT22;8120;48.308;8.914;2023-12-22T12:04:01;5.00;94.20
16032;DHT22;8120;48.308;8.914;2023-12-22T12:06:33;5.10;93.90
16032;DHT22;8120;48.308;8.914;2023-12-22T12:09:06;5.10;94.20
16032;DHT22;8120;48.308;8.914;2023-12-22T12:12:09;5.20;94.20
16032;DHT22;8120;48.308;8.914;2023-12-22T12:14:41;5.20;93.60
16032;DHT22;8120;48.308;8.914;2023-12-22T12:17:09;5.20;93.90
16032;DHT22;8120;48.308;8.914;2023-12-22T12:19:39;5.30;93.70
16032;DHT22;8120;48.308;8.914;2023-12-22T12:22:09;5.30;93.70
16032;DHT22;8120;48.308;8.914;2023-12-22T12:24:40;5.30;93.80
16032;DHT22;8120;48.308;8.914;2023-12-22T12:27:09;5.30;94.00
16032;DHT22;8120;48.308;8.914;2023-12-22T12:29:37;5.20;94.30
16032;DHT22;8120;48.308;8.914;2023-12-22T12:32:06;5.20;94.60
16032;DHT22;8120;48.308;8.914;2023-12-22T12:34:34;5.30;94.60
16032;DHT22;8120;48.308;8.914;2023-12-22T12:37:04;5.30;94.70
16032;DHT22;8120;48.308;8.914;2023-12-22T12:39:34;5.30;94.50
16032;DHT22;8120;48.308;8.914;2023-12-22T12:42:07;5.40;94.50
16032;DHT22;8120;48.308;8.914;2023-12-22T12:44:35;5.40;93.90
16032;DHT22;8120;48.308;8.914;2023-12-22T12:47:11;5.50;93.20
16032;DHT22;8120;48.308;8.914;2023-12-22T12:49:40;5.60;93.20
16032;DHT22;8120;48.308;8.914;2023-12-22T12:52:12;5.60;93.40
16032;DHT22;8120;48.308;8.914;2023-12-22T12:54:41;5.60;92.60
16032;DHT22;8120;48.308;8.914;2023-12-22T12:57:15;5.70;92.60
16032;DHT22;8120;48.308;8.914;2023-12-22T12:59:45;5.70;92.50
16032;DHT22;8120;48.308;8.914;2023-12-22T13:02:15;5.70;92.90
16032;DHT22;8120;48.308;8.914;2023-12-22T13:04:43;5.70;93.40
16032;DHT22;8120;48.308;8.914;2023-12-22T13:07:11;5.70;92.90
16032;DHT22;8120;48.308;8.914;2023-12-22T13:09:39;5.70;93.30
16032;DHT22;8120;48.308;8.914;2023-12-22T13:12:09;5.70;93.40
16032;DHT22;8120;48.308;8.914;2023-12-22T13:14:38;5.80;93.00
16032;DHT22;8120;48.308;8.914;2023-12-22T13:17:06;5.80;93.00
16032;DHT22;8120;48.308;8.914;2023-12-22T13:19:37;5.80;93.20
16032;DHT22;8120;48.308;8.914;2023-12-22T13:22:05;5.80;93.90
16032;DHT22;8120;48.308;8.914;2023-12-22T13:24:33;5.80;94.00
16032;DHT22;8120;48.308;8.914;2023-12-22T13:27:03;5.80;94.40
16032;DHT22;8120;48.308;8.914;2023-12-22T13:29:44;5.80;94.70
16032;DHT22;8120;48.308;8.914;2023-12-22T13:32:18;5.80;94.60
16032;DHT22;8120;48.308;8.914;2023-12-22T13:34:49;5.90;94.40
16032;DHT22;8120;48.308;8.914;2023-12-22T13:37:18;5.90;94.40
16032;DHT22;8120;48.308;8.914;2023-12-22T13:39:46;5.90;94.60
16032;DHT22;8120;48.308;8.914;2023-12-22T13:42:15;5.90;94.10
16032;DHT22;8120;48.308;8.914;2023-12-22T13:44:45;5.90;94.40
16032;DHT22;8120;48.308;8.914;2023-12-22T13:47:14;6.00;94.20
16032;DHT22;8120;48.308;8.914;2023-12-22T13:49:43;6.00;94.70
16032;DHT22;8120;48.308;8.914;2023-12-22T13:52:25;6.00;94.40
16032;DHT22;8120;48.308;8.914;2023-12-22T13:54:54;6.00;94.30
16032;DHT22;8120;48.308;8.914;2023-12-22T13:57:23;6.00;94.50
16032;DHT22;8120;48.308;8.914;2023-12-22T13:59:54;6.00;93.60
16032;DHT22;8120;48.308;8.914;2023-12-22T14:02:22;6.10;93.10
16032;DHT22;8120;48.308;8.914;2023-12-22T14:04:50;6.10;93.70
16032;DHT22;8120;48.308;8.914;2023-12-22T14:07:19;6.00;94.40
16032;DHT22;8120;48.308;8.914;2023-12-22T14:09:47;6.00;95.00
16032;DHT22;8120;48.308;8.914;2023-12-22T14:12:15;6.00;95.40
16032;DHT22;8120;48.308;8.914;2023-12-22T14:14:56;6.00;95.60
16032;DHT22;8120;48.308;8.914;2023-12-22T14:17:23;6.10;94.80
16032;DHT22;8120;48.308;8.914;2023-12-22T14:19:51;6.00;95.10
16032;DHT22;8120;48.308;8.914;2023-12-22T14:22:19;6.10;95.10
16032;DHT22;8120;48.308;8.914;2023-12-22T14:24:47;6.10;94.40
16032;DHT22;8120;48.308;8.914;2023-12-22T14:27:15;6.20;94.30
16032;DHT22;8120;48.308;8.914;2023-12-22T14:29:44;6.20;93.40
16032;DHT22;8120;48.308;8.914;2023-12-22T14:32:13;6.20;93.90
16032;DHT22;8120;48.308;8.914;2023-12-22T14:34:45;6.20;94.00
16032;DHT22;8120;48.308;8.914;2023-12-22T14:37:13;6.20;94.50
16032;DHT22;8120;48.308;8.914;2023-12-22T14:39:43;6.20;94.20
16032;DHT22;8120;48.308;8.914;2023-12-22T14:42:11;6.20;94.00
16032;DHT22;8120;48.308;8.914;2023-12-22T14:44:39;6.30;93.20
16032;DHT22;8120;48.308;8.914;2023-12-22T14:47:07;6.30;93.60
16032;DHT22;8120;48.308;8.914;2023-12-22T14:49:41;6.20;94.30
16032;DHT22;8120;48.308;8.914;2023-12-22T14:52:09;6.20;94.30
16032;DHT22;8120;48.308;8.914;2023-12-22T14:54:37;6.30;93.40
16032;DHT22;8120;48.308;8.914;2023-12-22T14:57:05;6.20;93.90
16032;DHT22;8120;48.308;8.914;2023-12-22T14:59:33;6.20;93.90
16032;DHT22;8120;48.308;8.914;2023-12-22T15:02:01;6.30;93.50
16032;DHT22;8120;48.308;8.914;2023-12-22T15:04:31;6.30;93.30
16032;DHT22;8120;48.308;8.914;2023-12-22T15:07:01;6.30;93.50
16032;DHT22;8120;48.308;8.914;2023-12-22T15:09:29;6.20;94.10
16032;DHT22;8120;48.308;8.914;2023-12-22T15:11:57;6.20;93.90
16032;DHT22;8120;48.308;8.914;2023-12-22T15:14:25;6.20;94.30
16032;DHT22;8120;48.308;8.914;2023-12-22T15:16:53;6.20;94.00
16032;DHT22;8120;48.308;8.914;2023-12-22T15:19:21;6.20;93.80
16032;DHT22;8120;48.308;8.914;2023-12-22T15:21:49;6.20;93.10
16032;DHT22;8120;48.308;8.914;2023-12-22T15:24:18;6.20;93.70
16032;DHT22;8120;48.308;8.914;2023-12-22T15:26:46;6.20;94.10
16032;DHT22;8120;48.308;8.914;2023-12-22T15:29:14;6.20;94.60
16032;DHT22;8120;48.308;8.914;2023-12-22T15:31:42;6.20;94.70
16032;DHT22;8120;48.308;8.914;2023-12-22T15:34:14;6.20;95.10
16032;DHT22;8120;48.308;8.914;2023-12-22T15:36:42;6.10;95.60
16032;DHT22;8120;48.308;8.914;2023-12-22T15:39:10;6.10;95.80
16032;DHT22;8120;48.308;8.914;2023-12-22T15:41:39;6.20;95.50
16032;DHT22;8120;48.308;8.914;2023-12-22T15:44:07;6.20;95.30
16032;DHT22;8120;48.308;8.914;2023-12-22T15:46:35;6.20;95.10
16032;DHT22;8120;48.308;8.914;2023-12-22T15:49:02;6.20;94.30
16032;DHT22;8120;48.308;8.914;2023-12-22T15:51:30;6.20;94.10
16032;DHT22;8120;48.308;8.914;2023-12-22T15:53:58;6.20;94.50
16032;DHT22;8120;48.308;8.914;2023-12-22T15:56:26;6.20;94.90
16032;DHT22;8120;48.308;8.914;2023-12-22T15:58:55;6.10;95.10
16032;DHT22;8120;48.308;8.914;2023-12-22T16:01:23;6.10;95.50
16032;DHT22;8120;48.308;8.914;2023-12-22T16:03:51;6.20;95.20
16032;DHT22;8120;48.308;8.914;2023-12-22T16:06:19;6.20;95.50
16032;DHT22;8120;48.308;8.914;2023-12-22T16:08:47;6.10;96.20
16032;DHT22;8120;48.308;8.914;2023-12-22T16:11:19;6.10;96.50
16032;DHT22;8120;48.308;8.914;2023-12-22T16:13:47;6.10;96.70
16032;DHT22;8120;48.308;8.914;2023-12-22T16:16:18;6.20;96.10
16032;DHT22;8120;48.308;8.914;2023-12-22T16:18:46;6.20;96.10